createdAt,value
2023-07-04T00:00:40.461Z,13.65
2023-07-04T00:01:40.520Z,13.68
2023-07-04T00:02:40.577Z,13.65
2023-07-04T00:03:40.486Z,13.68
2023-07-04T00:04:40.545Z,13.68
2023-07-04T00:05:40.564Z,13.71
2023-07-04T00:06:40.520Z,13.72
2023-07-04T00:07:40.446Z,13.75
2023-07-04T00:08:40.400Z,13.78
2023-07-04T00:09:40.342Z,13.80
2023-07-04T00:10:40.341Z,13.79
2023-07-04T00:11:40.312Z,13.83
2023-07-04T00:12:41.596Z,13.83
2023-07-04T00:13:40.795Z,13.85
2023-07-04T00:14:40.435Z,13.86
2023-07-04T00:15:40.389Z,13.88
2023-07-04T00:16:40.539Z,13.90
2023-07-04T00:17:40.329Z,13.91
2023-07-04T00:18:40.341Z,13.88
2023-07-04T00:19:40.309Z,13.86
2023-07-04T00:20:40.258Z,13.83
2023-07-04T00:21:40.275Z,13.78
2023-07-04T00:22:40.357Z,13.73
2023-07-04T00:23:40.228Z,13.64
2023-07-04T00:24:40.178Z,13.58
2023-07-04T00:25:40.162Z,13.53
2023-07-04T00:26:40.155Z,13.47
2023-07-04T00:27:40.154Z,13.45
2023-07-04T00:28:40.295Z,13.39
2023-07-04T00:29:40.088Z,13.36
2023-07-04T00:30:40.109Z,13.35
2023-07-04T00:31:40.121Z,13.32
2023-07-04T00:32:40.154Z,13.30
2023-07-04T00:33:40.073Z,13.29
2023-07-04T00:34:40.068Z,13.27
2023-07-04T00:35:40.057Z,13.29
2023-07-04T00:36:40.038Z,13.30
2023-07-04T00:37:40.011Z,13.29
2023-07-04T00:38:40.025Z,13.30
2023-07-04T00:39:40.034Z,13.30
2023-07-04T00:40:39.991Z,13.29
2023-07-04T00:41:39.957Z,13.27
2023-07-04T00:42:39.956Z,13.24
2023-07-04T00:43:40.113Z,13.23
2023-07-04T00:44:39.950Z,13.20
2023-07-04T00:45:39.939Z,13.17
2023-07-04T00:46:40.379Z,13.11
2023-07-04T00:47:39.995Z,13.09
2023-07-04T00:48:39.911Z,13.09
2023-07-04T00:49:39.877Z,13.08
2023-07-04T00:50:39.919Z,13.08
2023-07-04T00:51:39.881Z,13.02
2023-07-04T00:52:39.869Z,12.99
2023-07-04T00:53:39.863Z,12.99
2023-07-04T00:54:39.847Z,12.99
2023-07-04T00:55:39.816Z,12.95
2023-07-04T00:56:39.861Z,12.95
2023-07-04T00:57:39.840Z,12.95
2023-07-04T00:58:39.788Z,12.93
2023-07-04T00:59:39.777Z,12.93
2023-07-04T01:00:39.789Z,12.91
2023-07-04T01:01:39.794Z,12.91
2023-07-04T01:02:39.841Z,12.93
2023-07-04T01:03:39.788Z,12.90
2023-07-04T01:04:39.728Z,12.91
2023-07-04T01:05:39.720Z,12.90
2023-07-04T01:06:39.702Z,12.88
2023-07-04T01:07:39.705Z,12.87
2023-07-04T01:08:39.719Z,12.88
2023-07-04T01:09:39.712Z,12.87
2023-07-04T01:10:39.672Z,12.86
2023-07-04T01:11:39.702Z,12.88
2023-07-04T01:12:39.646Z,12.87
2023-07-04T01:13:39.686Z,12.88
2023-07-04T01:14:39.618Z,12.86
2023-07-04T01:15:39.591Z,12.86
2023-07-04T01:16:39.667Z,12.86
2023-07-04T01:17:39.669Z,12.86
2023-07-04T01:18:39.616Z,12.84
2023-07-04T01:19:39.568Z,12.84
2023-07-04T01:20:39.555Z,12.87
2023-07-04T01:21:39.616Z,12.86
2023-07-04T01:22:39.533Z,12.87
2023-07-04T01:23:39.549Z,12.87
2023-07-04T01:24:39.513Z,12.87
2023-07-04T01:25:39.498Z,12.84
2023-07-04T01:26:39.489Z,12.86
2023-07-04T01:27:39.550Z,12.87
2023-07-04T01:28:39.495Z,12.87
2023-07-04T01:29:39.488Z,12.90
2023-07-04T01:30:39.450Z,12.91
2023-07-04T01:31:39.458Z,12.93
2023-07-04T01:32:39.522Z,12.90
2023-07-04T01:33:39.398Z,12.90
2023-07-04T01:34:39.407Z,12.91
2023-07-04T01:35:39.398Z,12.91
2023-07-04T01:36:39.385Z,12.91
2023-07-04T01:37:39.382Z,12.95
2023-07-04T01:38:39.386Z,12.93
2023-07-04T01:39:39.376Z,12.93
2023-07-04T01:40:39.357Z,12.91
2023-07-04T01:41:39.338Z,12.90
2023-07-04T01:42:39.331Z,12.91
2023-07-04T01:43:39.360Z,12.91
2023-07-04T01:44:39.356Z,12.90
2023-07-04T01:45:39.331Z,12.93
2023-07-04T01:46:39.321Z,12.93
2023-07-04T01:47:39.320Z,12.95
2023-07-04T01:48:39.301Z,12.95
2023-07-04T01:49:39.249Z,12.95
2023-07-04T01:50:39.238Z,12.95
2023-07-04T01:51:39.247Z,12.93
2023-07-04T01:52:39.235Z,12.93
2023-07-04T01:53:39.206Z,12.95
2023-07-04T01:54:39.235Z,12.91
2023-07-04T01:55:39.189Z,12.90
2023-07-04T01:56:39.272Z,12.93
2023-07-04T01:57:39.210Z,12.91
2023-07-04T01:58:39.196Z,12.93
2023-07-04T01:59:39.157Z,12.91
2023-07-04T02:00:39.241Z,12.90
2023-07-04T02:01:39.214Z,12.91
2023-07-04T02:02:39.291Z,12.90
2023-07-04T02:03:39.175Z,12.88
2023-07-04T02:04:39.488Z,12.88
2023-07-04T02:05:39.071Z,12.86
2023-07-04T02:06:39.089Z,12.87
2023-07-04T02:07:39.076Z,12.86
2023-07-04T02:08:39.081Z,12.84
2023-07-04T02:09:39.084Z,12.87
2023-07-04T02:10:39.204Z,12.86
2023-07-04T02:11:39.107Z,12.87
2023-07-04T02:12:39.100Z,12.88
2023-07-04T02:13:39.127Z,12.88
2023-07-04T02:14:39.049Z,12.90
2023-07-04T02:15:39.044Z,12.91
2023-07-04T02:16:38.998Z,12.91
2023-07-04T02:17:38.986Z,12.91
2023-07-04T02:18:38.980Z,12.93
2023-07-04T02:19:39.062Z,12.95
2023-07-04T02:20:38.958Z,12.96
2023-07-04T02:21:38.924Z,12.96
2023-07-04T02:22:38.941Z,12.96
2023-07-04T02:23:38.942Z,12.99
2023-07-04T02:24:38.931Z,13.01
2023-07-04T02:25:38.903Z,12.99
2023-07-04T02:26:38.975Z,13.02
2023-07-04T02:27:39.089Z,13.02
2023-07-04T02:28:38.911Z,13.02
2023-07-04T02:29:38.958Z,13.01
2023-07-04T02:30:38.949Z,13.04
2023-07-04T02:31:38.856Z,13.05
2023-07-04T02:32:38.921Z,13.05
2023-07-04T02:33:38.812Z,13.05
2023-07-04T02:34:38.781Z,13.11
2023-07-04T02:35:38.960Z,13.11
2023-07-04T02:36:38.796Z,13.16
2023-07-04T02:37:38.766Z,13.14
2023-07-04T02:38:38.824Z,13.14
2023-07-04T02:39:38.766Z,13.17
2023-07-04T02:40:38.795Z,13.17
2023-07-04T02:41:38.804Z,13.20
2023-07-04T02:42:38.778Z,13.19
2023-07-04T02:43:38.934Z,13.20
2023-07-04T02:44:38.821Z,13.21
2023-07-04T02:45:38.715Z,13.20
2023-07-04T02:46:38.740Z,13.21
2023-07-04T02:47:38.695Z,13.19
2023-07-04T02:48:38.671Z,13.16
2023-07-04T02:49:38.661Z,13.13
2023-07-04T02:50:38.574Z,13.11
2023-07-04T02:51:38.630Z,13.05
2023-07-04T02:52:38.656Z,13.04
2023-07-04T02:53:38.569Z,13.02
2023-07-04T02:54:38.581Z,12.99
2023-07-04T02:55:38.560Z,12.98
2023-07-04T02:56:38.600Z,12.96
2023-07-04T02:57:38.617Z,12.96
2023-07-04T02:58:38.543Z,12.93
2023-07-04T02:59:38.576Z,12.95
2023-07-04T03:00:38.590Z,12.96
2023-07-04T03:01:38.571Z,12.96
2023-07-04T03:02:38.743Z,12.95
2023-07-04T03:03:38.632Z,12.93
2023-07-04T03:04:38.538Z,12.91
2023-07-04T03:05:38.464Z,12.90
2023-07-04T03:06:38.495Z,12.88
2023-07-04T03:07:38.566Z,12.88
2023-07-04T03:08:38.379Z,12.88
2023-07-04T03:09:38.470Z,12.87
2023-07-04T03:10:38.351Z,12.87
2023-07-04T03:11:38.357Z,12.86
2023-07-04T03:12:38.321Z,12.86
2023-07-04T03:13:38.833Z,12.86
2023-07-04T03:14:38.305Z,12.86
2023-07-04T03:15:38.341Z,12.83
2023-07-04T03:16:38.344Z,12.81
2023-07-04T03:17:38.396Z,12.83
2023-07-04T03:18:38.272Z,12.81
2023-07-04T03:19:38.433Z,12.83
2023-07-04T03:20:38.243Z,12.81
2023-07-04T03:21:38.281Z,12.81
2023-07-04T03:22:38.253Z,12.80
2023-07-04T03:23:38.210Z,12.79
2023-07-04T03:24:38.223Z,12.77
2023-07-04T03:25:38.193Z,12.76
2023-07-04T03:26:38.175Z,12.77
2023-07-04T03:27:38.193Z,12.77
2023-07-04T03:28:38.153Z,12.76
2023-07-04T03:29:38.156Z,12.73
2023-07-04T03:30:38.145Z,12.72
2023-07-04T03:31:38.145Z,12.72
2023-07-04T03:32:38.181Z,12.72
2023-07-04T03:33:38.111Z,12.73
2023-07-04T03:34:38.142Z,12.72
2023-07-04T03:35:53.129Z,12.73
2023-07-04T03:36:38.088Z,12.72
2023-07-04T03:37:38.086Z,12.73
2023-07-04T03:38:38.075Z,12.76
2023-07-04T03:39:38.051Z,12.73
2023-07-04T03:40:38.017Z,12.73
2023-07-04T03:41:38.038Z,12.72
2023-07-04T03:42:38.028Z,12.73
2023-07-04T03:43:38.043Z,12.72
2023-07-04T03:44:38.140Z,12.73
2023-07-04T03:45:38.096Z,12.73
2023-07-04T03:46:38.032Z,12.73
2023-07-04T03:47:38.106Z,12.72
2023-07-04T03:48:38.231Z,12.76
2023-07-04T03:49:38.205Z,12.73
2023-07-04T03:50:37.976Z,12.73
2023-07-04T03:51:37.920Z,12.73
2023-07-04T03:52:38.008Z,12.73
2023-07-04T03:53:38.027Z,12.79
2023-07-04T03:54:37.948Z,12.80
2023-07-04T03:55:37.920Z,12.80
2023-07-04T03:56:37.863Z,12.80
2023-07-04T03:57:38.031Z,12.80
2023-07-04T03:58:37.887Z,12.79
2023-07-04T03:59:38.002Z,12.81
2023-07-04T04:00:37.915Z,12.81
2023-07-04T04:01:37.847Z,12.81
2023-07-04T04:02:37.901Z,12.83
2023-07-04T04:03:37.912Z,12.84
2023-07-04T04:04:40.169Z,12.86
2023-07-04T04:05:37.842Z,12.87
2023-07-04T04:06:37.786Z,12.90
2023-07-04T04:07:37.888Z,12.90
2023-07-04T04:08:37.735Z,12.93
2023-07-04T04:09:37.779Z,12.96
2023-07-04T04:10:37.720Z,12.96
2023-07-04T04:11:37.825Z,12.96
2023-07-04T04:12:37.696Z,12.99
2023-07-04T04:13:37.706Z,13.04
2023-07-04T04:14:37.685Z,13.05
2023-07-04T04:15:37.683Z,13.08
2023-07-04T04:16:37.723Z,13.09
2023-07-04T04:17:37.691Z,13.11
2023-07-04T04:18:37.682Z,13.11
2023-07-04T04:19:37.724Z,13.14
2023-07-04T04:20:37.796Z,13.13
2023-07-04T04:21:37.641Z,13.11
2023-07-04T04:22:37.600Z,13.13
2023-07-04T04:23:37.654Z,13.14
2023-07-04T04:24:37.612Z,13.19
2023-07-04T04:25:37.608Z,13.19
2023-07-04T04:26:37.629Z,13.17
2023-07-04T04:27:37.559Z,13.19
2023-07-04T04:28:37.564Z,13.19
2023-07-04T04:29:37.587Z,13.19
2023-07-04T04:30:37.640Z,13.20
2023-07-04T04:31:37.921Z,13.16
2023-07-04T04:32:37.521Z,13.21
2023-07-04T04:33:37.774Z,13.20
2023-07-04T04:34:37.458Z,13.20
2023-07-04T04:35:37.499Z,13.19
2023-07-04T04:36:37.531Z,13.21
2023-07-04T04:37:37.448Z,13.23
2023-07-04T04:38:37.547Z,13.26
2023-07-04T04:39:37.502Z,13.26
2023-07-04T04:40:37.449Z,13.27
2023-07-04T04:41:37.509Z,13.27
2023-07-04T04:42:37.423Z,13.27
2023-07-04T04:43:37.371Z,13.27
2023-07-04T04:44:37.389Z,13.30
2023-07-04T04:45:37.375Z,13.30
2023-07-04T04:46:37.483Z,13.32
2023-07-04T04:47:37.441Z,13.35
2023-07-04T04:48:37.372Z,13.35
2023-07-04T04:49:37.388Z,13.36
2023-07-04T04:50:37.355Z,13.36
2023-07-04T04:51:37.304Z,13.38
2023-07-04T04:52:37.344Z,13.43
2023-07-04T04:53:37.304Z,13.45
2023-07-04T04:54:37.324Z,13.45
2023-07-04T04:55:37.269Z,13.51
2023-07-04T04:56:37.352Z,13.54
2023-07-04T04:57:37.226Z,13.54
2023-07-04T04:58:37.313Z,13.60
2023-07-04T04:59:37.257Z,13.63
2023-07-04T05:00:37.308Z,13.64
2023-07-04T05:01:37.282Z,13.67
2023-07-04T05:02:37.263Z,13.73
2023-07-04T05:03:37.174Z,13.78
2023-07-04T05:04:37.249Z,13.80
2023-07-04T05:05:37.266Z,13.88
2023-07-04T05:06:37.180Z,13.94
2023-07-04T05:07:37.212Z,13.96
2023-07-04T05:08:37.170Z,13.94
2023-07-04T05:09:37.149Z,13.98
2023-07-04T05:10:37.093Z,13.98
2023-07-04T05:11:37.108Z,13.97
2023-07-04T05:12:37.322Z,13.96
2023-07-04T05:13:37.164Z,13.96
2023-07-04T05:14:37.130Z,13.93
2023-07-04T05:15:37.078Z,13.90
2023-07-04T05:16:37.260Z,13.83
2023-07-04T05:17:37.114Z,13.82
2023-07-04T05:18:37.054Z,13.82
2023-07-04T05:19:37.062Z,13.80
2023-07-04T05:20:37.245Z,13.79
2023-07-04T05:21:37.082Z,13.80
2023-07-04T05:22:37.030Z,13.80
2023-07-04T05:23:37.025Z,13.80
2023-07-04T05:24:37.065Z,13.82
2023-07-04T05:25:36.926Z,13.88
2023-07-04T05:26:36.957Z,13.97
2023-07-04T05:27:36.906Z,14.01
2023-07-04T05:28:36.912Z,14.00
2023-07-04T05:29:37.167Z,14.00
2023-07-04T05:30:36.907Z,13.98
2023-07-04T05:31:37.182Z,13.97
2023-07-04T05:32:36.843Z,14.00
2023-07-04T05:33:37.276Z,13.98
2023-07-04T05:34:36.880Z,13.97
2023-07-04T05:35:36.965Z,13.96
2023-07-04T05:36:36.847Z,13.91
2023-07-04T05:37:36.817Z,13.98
2023-07-04T05:38:36.791Z,14.08
2023-07-04T05:39:36.780Z,14.13
2023-07-04T05:40:36.770Z,14.22
2023-07-04T05:41:36.813Z,14.30
2023-07-04T05:42:36.720Z,14.34
2023-07-04T05:43:36.831Z,14.41
2023-07-04T05:44:36.718Z,14.46
2023-07-04T05:45:36.788Z,14.55
2023-07-04T05:46:36.761Z,14.58
2023-07-04T05:47:36.832Z,14.64
2023-07-04T05:48:36.671Z,14.71
2023-07-04T05:49:36.667Z,14.71
2023-07-04T05:50:36.635Z,14.66
2023-07-04T05:51:36.709Z,14.70
2023-07-04T05:52:36.626Z,14.78
2023-07-04T05:53:36.640Z,14.90
2023-07-04T05:54:36.695Z,14.97
2023-07-04T05:55:36.633Z,14.99
2023-07-04T05:56:36.598Z,15.08
2023-07-04T05:57:36.583Z,15.11
2023-07-04T05:58:36.547Z,15.14
2023-07-04T05:59:36.577Z,15.22
2023-07-04T06:00:36.531Z,15.23
2023-07-04T06:01:36.546Z,15.27
2023-07-04T06:02:36.628Z,15.29
2023-07-04T06:03:36.804Z,15.20
2023-07-04T06:04:36.761Z,15.19
2023-07-04T06:05:36.519Z,15.15
2023-07-04T06:06:36.488Z,15.14
2023-07-04T06:07:36.471Z,15.11
2023-07-04T06:08:36.452Z,15.08
2023-07-04T06:09:36.705Z,15.07
2023-07-04T06:10:36.469Z,15.14
2023-07-04T06:11:36.433Z,15.22
2023-07-04T06:12:36.402Z,15.27
2023-07-04T06:13:36.436Z,15.33
2023-07-04T06:14:36.388Z,15.32
2023-07-04T06:15:36.429Z,15.29
2023-07-04T06:16:36.363Z,15.33
2023-07-04T06:17:36.509Z,15.45
2023-07-04T06:18:36.348Z,15.59
2023-07-04T06:19:36.383Z,15.73
2023-07-04T06:20:36.369Z,15.83
2023-07-04T06:21:44.085Z,15.87
2023-07-04T06:22:36.317Z,15.95
2023-07-04T06:23:36.316Z,15.88
2023-07-04T06:24:36.317Z,15.78
2023-07-04T06:25:36.454Z,15.60
2023-07-04T06:26:36.412Z,15.60
2023-07-04T06:27:36.291Z,15.65
2023-07-04T06:28:36.231Z,15.68
2023-07-04T06:29:36.271Z,15.73
2023-07-04T06:30:36.226Z,15.78
2023-07-04T06:31:36.741Z,15.90
2023-07-04T06:32:36.230Z,15.83
2023-07-04T06:33:36.198Z,15.81
2023-07-04T06:34:36.230Z,15.70
2023-07-04T06:35:36.220Z,15.56
2023-07-04T06:36:36.174Z,15.48
2023-07-04T06:37:36.189Z,15.47
2023-07-04T06:38:36.177Z,15.54
2023-07-04T06:39:36.197Z,15.59
2023-07-04T06:40:36.116Z,15.73
2023-07-04T06:41:36.356Z,15.87
2023-07-04T06:42:36.117Z,16.02
2023-07-04T06:43:36.157Z,16.06
2023-07-04T06:44:36.088Z,16.21
2023-07-04T06:45:36.062Z,16.22
2023-07-04T06:46:36.480Z,16.22
2023-07-04T06:47:36.389Z,16.29
2023-07-04T06:48:36.108Z,16.28
2023-07-04T06:49:36.222Z,16.21
2023-07-04T06:50:36.044Z,16.28
2023-07-04T06:51:36.039Z,16.32
2023-07-04T06:52:36.171Z,16.42
2023-07-04T06:53:35.981Z,16.51
2023-07-04T06:54:36.007Z,16.51
2023-07-04T06:55:36.020Z,16.65
2023-07-04T06:56:36.032Z,16.69
2023-07-04T06:57:35.964Z,16.67
2023-07-04T06:58:36.224Z,16.64
2023-07-04T06:59:35.919Z,16.57
2023-07-04T07:00:35.909Z,16.58
2023-07-04T07:01:35.978Z,16.47
2023-07-04T07:02:35.997Z,16.37
2023-07-04T07:03:36.027Z,16.26
2023-07-04T07:04:35.894Z,16.36
2023-07-04T07:05:35.896Z,16.47
2023-07-04T07:06:35.895Z,16.59
2023-07-04T07:07:35.846Z,16.65
2023-07-04T07:08:36.049Z,16.69
2023-07-04T07:09:37.504Z,16.70
2023-07-04T07:10:35.810Z,16.61
2023-07-04T07:11:35.857Z,16.57
2023-07-04T07:12:35.934Z,16.54
2023-07-04T07:13:35.858Z,16.39
2023-07-04T07:14:35.894Z,16.32
2023-07-04T07:15:35.903Z,16.28
2023-07-04T07:16:36.388Z,16.32
2023-07-04T07:17:38.199Z,16.46
2023-07-04T07:18:35.793Z,16.55
2023-07-04T07:19:37.316Z,16.88
2023-07-04T07:20:35.769Z,17.12
2023-07-04T07:21:35.774Z,17.17
2023-07-04T07:22:35.732Z,17.31
2023-07-04T07:23:35.714Z,17.46
2023-07-04T07:24:35.719Z,17.35
2023-07-04T07:25:35.723Z,17.31
2023-07-04T07:26:35.690Z,17.39
2023-07-04T07:27:35.596Z,17.24
2023-07-04T07:28:36.249Z,17.34
2023-07-04T07:29:35.725Z,17.16
2023-07-04T07:30:35.837Z,16.90
2023-07-04T07:31:35.565Z,16.70
2023-07-04T07:32:35.636Z,16.58
2023-07-04T07:33:35.597Z,16.55
2023-07-04T07:34:35.658Z,16.80
2023-07-04T07:35:35.620Z,16.98
2023-07-04T07:36:35.488Z,17.17
2023-07-04T07:37:35.512Z,17.17
2023-07-04T07:38:35.551Z,17.16
2023-07-04T07:39:35.617Z,17.32
2023-07-04T07:40:35.552Z,17.49
2023-07-04T07:41:35.557Z,17.69
2023-07-04T07:42:35.458Z,17.73
2023-07-04T07:43:35.449Z,18.03
2023-07-04T07:44:35.458Z,18.09
2023-07-04T07:45:35.423Z,18.03
2023-07-04T07:46:35.410Z,18.15
2023-07-04T07:47:35.432Z,17.88
2023-07-04T07:48:35.463Z,17.71
2023-07-04T07:49:35.353Z,17.69
2023-07-04T07:50:35.455Z,17.68
2023-07-04T07:51:35.405Z,17.69
2023-07-04T07:52:35.361Z,17.66
2023-07-04T07:53:35.324Z,17.76
2023-07-04T07:54:35.307Z,18.08
2023-07-04T07:55:35.368Z,18.27
2023-07-04T07:56:35.309Z,18.46
2023-07-04T07:57:35.353Z,18.49
2023-07-04T07:58:35.304Z,18.46
2023-07-04T07:59:35.290Z,18.56
2023-07-04T08:00:35.282Z,18.45
2023-07-04T08:01:35.293Z,18.51
2023-07-04T08:02:35.275Z,18.56
2023-07-04T08:03:35.326Z,18.66
2023-07-04T08:04:35.537Z,18.63
2023-07-04T08:05:35.201Z,18.68
2023-07-04T08:06:35.233Z,18.97
2023-07-04T08:07:35.195Z,19.09
2023-07-04T08:08:35.208Z,19.09
2023-07-04T08:09:35.239Z,18.91
2023-07-04T08:10:35.197Z,18.66
2023-07-04T08:11:35.142Z,18.58
2023-07-04T08:12:35.159Z,18.52
2023-07-04T08:13:35.164Z,18.49
2023-07-04T08:14:35.130Z,18.49
2023-07-04T08:15:35.106Z,18.46
2023-07-04T08:16:35.165Z,18.21
2023-07-04T08:17:35.125Z,18.13
2023-07-04T08:18:35.104Z,18.33
2023-07-04T08:19:35.047Z,18.34
2023-07-04T08:20:35.049Z,18.31
2023-07-04T08:21:35.034Z,18.39
2023-07-04T08:22:35.065Z,18.39
2023-07-04T08:23:35.024Z,18.43
2023-07-04T08:24:35.075Z,18.51
2023-07-04T08:25:35.626Z,18.42
2023-07-04T08:26:35.155Z,18.58
2023-07-04T08:27:35.029Z,18.79
2023-07-04T08:28:34.992Z,18.79
2023-07-04T08:29:34.977Z,18.96
2023-07-04T08:30:34.954Z,19.08
2023-07-04T08:31:35.076Z,19.24
2023-07-04T08:32:35.044Z,19.24
2023-07-04T08:33:34.922Z,19.07
2023-07-04T08:34:34.877Z,18.85
2023-07-04T08:35:35.145Z,18.96
2023-07-04T08:36:34.873Z,19.04
2023-07-04T08:37:34.862Z,19.23
2023-07-04T08:38:34.865Z,19.44
2023-07-04T08:39:34.827Z,19.59
2023-07-04T08:40:34.829Z,19.74
2023-07-04T08:41:34.821Z,19.84
2023-07-04T08:42:34.844Z,19.70
2023-07-04T08:43:34.819Z,19.72
2023-07-04T08:44:34.801Z,19.70
2023-07-04T08:45:34.796Z,19.70
2023-07-04T08:46:34.797Z,19.78
2023-07-04T08:47:34.839Z,19.86
2023-07-04T08:48:34.773Z,19.84
2023-07-04T08:49:34.740Z,19.89
2023-07-04T08:50:34.765Z,19.72
2023-07-04T08:51:34.714Z,19.32
2023-07-04T08:52:34.693Z,19.16
2023-07-04T08:53:34.709Z,19.15
2023-07-04T08:54:34.710Z,19.22
2023-07-04T08:55:34.673Z,19.38
2023-07-04T08:56:34.685Z,19.53
2023-07-04T08:57:34.645Z,19.72
2023-07-04T08:58:34.867Z,19.62
2023-07-04T08:59:34.664Z,19.72
2023-07-04T09:00:34.605Z,19.64
2023-07-04T09:01:34.623Z,19.78
2023-07-04T09:02:34.636Z,19.84
2023-07-04T09:03:34.655Z,19.87
2023-07-04T09:04:34.556Z,19.94
2023-07-04T09:05:34.566Z,19.99
2023-07-04T09:06:34.546Z,20.23
2023-07-04T09:07:34.524Z,20.46
2023-07-04T09:08:34.591Z,20.58
2023-07-04T09:09:34.515Z,20.26
2023-07-04T09:10:34.545Z,19.99
2023-07-04T09:11:34.490Z,19.78
2023-07-04T09:12:34.525Z,19.68
2023-07-04T09:13:34.513Z,19.32
2023-07-04T09:14:34.505Z,19.30
2023-07-04T09:15:34.425Z,19.30
2023-07-04T09:16:34.494Z,19.32
2023-07-04T09:17:34.471Z,19.34
2023-07-04T09:18:34.442Z,19.47
2023-07-04T09:19:34.462Z,19.56
2023-07-04T09:20:34.393Z,19.70
2023-07-04T09:21:34.426Z,19.77
2023-07-04T09:22:34.446Z,19.74
2023-07-04T09:23:34.360Z,19.82
2023-07-04T09:24:35.370Z,19.79
2023-07-04T09:25:34.360Z,19.87
2023-07-04T09:26:34.366Z,19.93
2023-07-04T09:27:34.309Z,19.79
2023-07-04T09:28:34.440Z,19.74
2023-07-04T09:29:34.296Z,19.67
2023-07-04T09:31:34.333Z,19.56
2023-07-04T09:32:34.357Z,19.52
2023-07-04T09:33:34.237Z,19.44
2023-07-04T09:34:34.235Z,19.39
2023-07-04T09:35:34.259Z,19.37
2023-07-04T09:36:34.233Z,19.52
2023-07-04T09:37:34.195Z,19.53
2023-07-04T09:38:34.195Z,19.67
2023-07-04T09:39:34.197Z,19.82
2023-07-04T09:40:34.260Z,19.81
2023-07-04T09:41:34.292Z,19.81
2023-07-04T09:42:45.888Z,19.90
2023-07-04T09:43:34.188Z,20.00
2023-07-04T09:44:34.130Z,20.00
2023-07-04T09:45:34.261Z,19.96
2023-07-04T09:46:34.120Z,20.05
2023-07-04T09:47:34.157Z,20.09
2023-07-04T09:48:34.105Z,20.07
2023-07-04T09:49:34.073Z,19.96
2023-07-04T09:50:34.107Z,19.93
2023-07-04T09:51:34.080Z,20.02
2023-07-04T09:52:34.063Z,20.11
2023-07-04T09:53:34.085Z,20.08
2023-07-04T09:54:36.118Z,20.17
2023-07-04T09:55:34.032Z,20.17
2023-07-04T09:56:34.006Z,20.11
2023-07-04T09:57:34.013Z,20.02
2023-07-04T09:58:33.998Z,19.97
2023-07-04T09:59:33.985Z,20.02
2023-07-04T10:00:33.986Z,20.07
2023-07-04T10:01:34.016Z,20.02
2023-07-04T10:02:34.029Z,20.02
2023-07-04T10:03:34.101Z,19.96
2023-07-04T10:04:33.923Z,19.96
2023-07-04T10:05:33.893Z,19.84
2023-07-04T10:06:33.903Z,19.89
2023-07-04T10:07:33.894Z,20.02
2023-07-04T10:08:33.923Z,20.19
2023-07-04T10:09:33.903Z,20.27
2023-07-04T10:10:33.847Z,20.25
2023-07-04T10:11:34.013Z,20.29
2023-07-04T10:12:33.844Z,20.49
2023-07-04T10:13:33.893Z,20.48
2023-07-04T10:14:33.858Z,20.46
2023-07-04T10:15:33.800Z,20.52
2023-07-04T10:16:33.821Z,20.75
2023-07-04T10:17:34.071Z,20.85
2023-07-04T10:18:33.794Z,20.71
2023-07-04T10:19:33.777Z,20.71
2023-07-04T10:20:33.859Z,20.98
2023-07-04T10:21:33.736Z,21.26
2023-07-04T10:22:33.740Z,21.35
2023-07-04T10:23:33.719Z,21.43
2023-07-04T10:24:34.021Z,21.58
2023-07-04T10:25:33.693Z,21.56
2023-07-04T10:26:33.668Z,21.58
2023-07-04T10:27:33.694Z,21.51
2023-07-04T10:28:33.675Z,21.55
2023-07-04T10:29:33.656Z,21.69
2023-07-04T10:30:33.682Z,21.30
2023-07-04T10:31:33.676Z,21.19
2023-07-04T10:32:33.721Z,21.03
2023-07-04T10:33:33.603Z,21.23
2023-07-04T10:34:33.588Z,21.13
2023-07-04T10:35:33.614Z,21.26
2023-07-04T10:36:33.596Z,21.51
2023-07-04T10:37:33.559Z,21.73
2023-07-04T10:38:34.017Z,21.88
2023-07-04T10:39:33.537Z,21.94
2023-07-04T10:40:33.531Z,21.93
2023-07-04T10:41:33.852Z,21.65
2023-07-04T10:42:33.516Z,21.66
2023-07-04T10:43:33.522Z,21.71
2023-07-04T10:44:33.493Z,21.88
2023-07-04T10:45:34.169Z,21.91
2023-07-04T10:46:33.516Z,22.21
2023-07-04T10:47:33.498Z,21.97
2023-07-04T10:48:33.462Z,22.01
2023-07-04T10:49:33.427Z,21.98
2023-07-04T10:50:33.464Z,22.01
2023-07-04T10:51:33.442Z,22.19
2023-07-04T10:52:33.438Z,22.36
2023-07-04T10:53:33.402Z,22.23
2023-07-04T10:54:33.397Z,22.21
2023-07-04T10:55:33.399Z,21.93
2023-07-04T10:56:33.358Z,21.75
2023-07-04T10:57:33.382Z,21.59
2023-07-04T10:58:33.336Z,21.59
2023-07-04T10:59:33.548Z,21.78
2023-07-04T11:00:33.306Z,22.11
2023-07-04T11:01:33.396Z,22.53
2023-07-04T11:02:33.386Z,22.80
2023-07-04T11:03:33.345Z,23.04
2023-07-04T11:04:33.288Z,22.93
2023-07-04T11:05:33.246Z,22.46
2023-07-04T11:06:33.286Z,21.97
2023-07-04T11:07:33.288Z,21.50
2023-07-04T11:08:33.260Z,21.38
2023-07-04T11:09:33.226Z,21.38
2023-07-04T11:10:33.209Z,21.51
2023-07-04T11:11:33.210Z,21.71
2023-07-04T11:12:33.243Z,21.85
2023-07-04T11:13:33.249Z,21.90
2023-07-04T11:14:33.216Z,21.98
2023-07-04T11:15:33.213Z,22.09
2023-07-04T11:16:33.366Z,22.16
2023-07-04T11:17:33.187Z,22.18
2023-07-04T11:18:33.205Z,22.11
2023-07-04T11:19:33.133Z,22.27
2023-07-04T11:20:33.107Z,22.46
2023-07-04T11:21:33.089Z,22.67
2023-07-04T11:22:33.091Z,22.95
2023-07-04T11:23:33.086Z,22.89
2023-07-04T11:24:33.063Z,22.86
2023-07-04T11:25:33.051Z,22.67
2023-07-04T11:26:33.044Z,22.67
2023-07-04T11:27:33.049Z,22.77
2023-07-04T11:28:33.081Z,22.73
2023-07-04T11:29:33.025Z,22.30
2023-07-04T11:30:33.019Z,22.19
2023-07-04T11:31:33.123Z,22.38
2023-07-04T11:32:33.009Z,22.18
2023-07-04T11:33:32.990Z,21.97
2023-07-04T11:34:33.047Z,22.21
2023-07-04T11:35:33.036Z,22.43
2023-07-04T11:36:32.988Z,22.34
2023-07-04T11:37:32.916Z,22.36
2023-07-04T11:38:32.921Z,22.64
2023-07-04T11:39:32.947Z,22.98
2023-07-04T11:40:32.950Z,23.10
2023-07-04T11:41:32.883Z,23.15
2023-07-04T11:42:32.941Z,23.21
2023-07-04T11:43:32.877Z,23.10
2023-07-04T11:44:32.868Z,23.08
2023-07-04T11:45:32.864Z,23.45
2023-07-04T11:46:32.935Z,23.61
2023-07-04T11:47:32.850Z,23.67
2023-07-04T11:48:32.809Z,23.52
2023-07-04T11:49:32.800Z,23.26
2023-07-04T11:50:32.805Z,23.13
2023-07-04T11:51:32.770Z,23.21
2023-07-04T11:52:32.802Z,23.04
2023-07-04T11:53:32.816Z,22.74
2023-07-04T11:54:32.767Z,22.93
2023-07-04T11:55:32.746Z,23.22
2023-07-04T11:56:32.806Z,23.29
2023-07-04T11:57:32.740Z,23.46
2023-07-04T11:58:32.742Z,23.86
2023-07-04T11:59:32.699Z,23.76
2023-07-04T12:00:32.700Z,23.79
2023-07-04T12:01:32.680Z,23.97
2023-07-04T12:02:32.988Z,24.52
2023-07-04T12:03:32.871Z,24.70
2023-07-04T12:04:32.709Z,24.63
2023-07-04T12:05:32.672Z,24.81
2023-07-04T12:06:32.842Z,24.55
2023-07-04T12:07:32.669Z,24.06
2023-07-04T12:08:32.619Z,23.88
2023-07-04T12:09:32.599Z,23.64
2023-07-04T12:10:32.623Z,23.33
2023-07-04T12:11:32.643Z,22.80
2023-07-04T12:12:32.607Z,22.51
2023-07-04T12:13:32.579Z,22.16
2023-07-04T12:14:32.552Z,22.11
2023-07-04T12:15:32.536Z,22.11
2023-07-04T12:16:32.557Z,22.76
2023-07-04T12:17:32.522Z,22.88
2023-07-04T12:18:32.486Z,22.88
2023-07-04T12:19:32.513Z,22.99
2023-07-04T12:20:32.527Z,23.13
2023-07-04T12:21:32.469Z,23.13
2023-07-04T12:22:32.457Z,23.13
2023-07-04T12:23:32.676Z,23.67
2023-07-04T12:24:32.488Z,24.03
2023-07-04T12:25:32.645Z,24.15
2023-07-04T12:26:32.392Z,23.81
2023-07-04T12:27:32.389Z,23.23
2023-07-04T12:28:32.388Z,22.58
2023-07-04T12:32:32.349Z,22.55
2023-07-04T12:33:32.444Z,22.30
2023-07-04T12:35:10.073Z,22.49
2023-07-04T12:35:32.313Z,23.28
2023-07-04T12:36:32.288Z,23.41
2023-07-04T12:37:32.313Z,23.04
2023-07-04T12:38:32.357Z,22.78
2023-07-04T12:39:32.462Z,22.51
2023-07-04T12:40:32.341Z,22.31
2023-07-04T12:41:32.276Z,22.31
2023-07-04T12:42:32.249Z,22.30
2023-07-04T12:45:32.249Z,23.63
2023-07-04T12:49:32.230Z,25.06
2023-07-04T12:50:32.277Z,25.23
2023-07-04T12:51:32.284Z,25.81
2023-07-04T12:52:32.166Z,24.63
2023-07-04T12:53:32.110Z,23.76
2023-07-04T12:54:32.132Z,23.55
2023-07-04T12:55:32.120Z,23.69
2023-07-04T12:56:32.065Z,23.33
2023-07-04T12:57:32.094Z,23.08
2023-07-04T12:58:32.067Z,22.88
2023-07-04T12:59:32.046Z,22.67
2023-07-04T13:00:32.254Z,22.30
2023-07-04T13:01:32.081Z,22.28